Dutchtown, Missouri
Current Conditions -  °F | °C
As of 5:53 AM on Friday 19 Dec 2014 (Local Time) from KCGI Reporting Station
Overcast Overcast  
Wind Chill: 27°   Ceiling: 3700
Heat Index: 33°   Visibility: 8mi
Dew Point: 29°   Wind: 7mph
Humidity: 85%   Direction: 50°NE
Pressure: 30.29"   Gusts: NA
Location:  37.25°N, 89.66°W
Report Text: KCGI 191153Z AUTO 05006KT 8SM OVC037 01/M02 A3029 RMK AO2 SLP258 T00061017 10022 20006 53001 TSNO
Loading
Personal Weather Stations






























Interactive Weather Map New forecast layout! Learn more

10-Day Weather Forecast

Advertisements
Track Severe Weather on mobile